Time;durP1;ratioP1;P1;durP2;ratioP2;P2;SDS_P1;SDS_P2;PMS_P1;PMS_P2;Temp;Humidity;BMP_temperature;BMP_pressure;BME280_temperature;BME280_humidity;BME280_pressure;Samples;Min_cycle;Max_cycle;Signal;HPM_P1;HPM_P2
2023/10/31 00:01:00;;;;;;;3.60;1.85;;;18.50;90.30;;;;;;12558674;28;20382;-68
2023/10/31 00:07:02;;;;;;;6.45;2.35;;;18.60;90.20;;;;;;12558456;28;20029;-69
2023/10/31 00:13:04;;;;;;;6.13;1.67;;;18.70;90.10;;;;;;12558254;28;20033;-69
2023/10/31 00:19:06;;;;;;;7.07;2.13;;;18.60;90.00;;;;;;12540746;28;20353;-69
2023/10/31 00:25:08;;;;;;;2.90;1.90;;;18.40;90.10;;;;;;12557574;28;20434;-69
2023/10/31 00:31:13;;;;;;;2.78;1.75;;;18.40;90.10;;;;;;12557236;28;20037;-69
2023/10/31 00:37:19;;;;;;;2.75;1.50;;;18.50;90.00;;;;;;12540186;28;20052;-69
2023/10/31 00:43:20;;;;;;;2.83;1.15;;;18.60;89.90;;;;;;12538944;28;20033;-69
2023/10/31 00:49:22;;;;;;;5.53;1.65;;;18.70;89.80;;;;;;12556410;28;20037;-69
2023/10/31 00:55:23;;;;;;;9.48;1.95;;;18.60;89.70;;;;;;12538304;28;20087;-72
2023/10/31 01:01:25;;;;;;;2.47;0.98;;;18.60;89.70;;;;;;12555718;28;20330;-72
2023/10/31 01:07:27;;;;;;;2.63;1.10;;;18.50;89.70;;;;;;12537839;28;20029;-72
2023/10/31 01:13:28;;;;;;;2.00;1.15;;;18.60;89.60;;;;;;12555337;28;20055;-72
2023/10/31 01:19:30;;;;;;;7.47;1.63;;;18.50;89.50;;;;;;12555126;28;20350;-72
2023/10/31 01:25:31;;;;;;;4.65;1.33;;;18.60;89.50;;;;;;12554877;28;20037;-72
2023/10/31 01:31:34;;;;;;;3.50;1.35;;;18.50;89.40;;;;;;12554653;28;20036;-69
2023/10/31 01:37:36;;;;;;;1.55;0.77;;;18.40;89.40;;;;;;12546766;23;20037;-69
2023/10/31 01:43:38;;;;;;;1.98;0.98;;;18.40;89.40;;;;;;12536595;28;20029;-69
2023/10/31 01:49:40;;;;;;;1.48;0.70;;;18.50;89.40;;;;;;12569652;28;20032;-69
2023/10/31 01:55:44;;;;;;;1.15;0.60;;;18.50;89.30;;;;;;12536243;28;20037;-69
2023/10/31 02:01:45;;;;;;;0.85;0.68;;;18.50;89.20;;;;;;12553800;28;20444;-69
2023/10/31 02:07:47;;;;;;;1.58;0.70;;;18.50;89.10;;;;;;12556148;28;20029;-69
2023/10/31 02:13:49;;;;;;;1.55;0.55;;;18.30;89.00;;;;;;12579286;28;20372;-69
2023/10/31 02:19:51;;;;;;;6.82;0.57;;;18.20;89.20;;;;;;12563421;28;20032;-72
2023/10/31 02:25:52;;;;;;;2.10;0.82;;;18.20;89.00;;;;;;12561932;28;20033;-72
2023/10/31 02:31:55;;;;;;;0.47;0.32;;;18.20;89.10;;;;;;12578912;28;20330;-72
2023/10/31 02:37:56;;;;;;;0.65;0.45;;;18.20;89.00;;;;;;12578308;28;20044;-72
2023/10/31 02:43:58;;;;;;;2.80;0.40;;;18.10;88.80;;;;;;12544549;28;20051;-72
2023/10/31 02:50:00;;;;;;;0.98;0.63;;;18.00;88.90;;;;;;12544882;28;20040;-71
2023/10/31 02:56:01;;;;;;;0.65;0.38;;;18.00;88.80;;;;;;12562330;28;20206;-71
2023/10/31 03:02:04;;;;;;;0.52;0.50;;;18.00;88.80;;;;;;12560214;28;20037;-72
2023/10/31 03:08:07;;;;;;;0.43;0.32;;;17.90;88.80;;;;;;12561240;28;20048;-71
2023/10/31 03:14:09;;;;;;;2.50;0.40;;;17.90;88.80;;;;;;12560878;28;20434;-71
2023/10/31 03:20:11;;;;;;;0.55;0.35;;;18.00;88.90;;;;;;12525696;28;20051;-72
2023/10/31 03:26:12;;;;;;;0.38;0.38;;;18.00;89.00;;;;;;12542656;28;20033;-72
2023/10/31 03:32:15;;;;;;;0.70;0.52;;;18.00;89.00;;;;;;12542535;28;20440;-71
2023/10/31 03:38:16;;;;;;;0.50;0.30;;;17.80;89.00;;;;;;12575337;28;20048;-71
2023/10/31 03:44:18;;;;;;;0.50;0.50;;;17.90;89.10;;;;;;12559526;28;20028;-72
2023/10/31 03:50:20;;;;;;;4.93;1.45;;;17.90;88.90;;;;;;12559223;28;20460;-71
2023/10/31 03:56:22;;;;;;;1.30;0.70;;;17.90;88.90;;;;;;12559104;28;20033;-71
2023/10/31 04:02:23;;;;;;;2.70;1.92;;;17.70;89.10;;;;;;12541602;28;20033;-71
2023/10/31 04:08:25;;;;;;;4.80;1.13;;;17.80;89.30;;;;;;12557302;28;20095;-71
2023/10/31 04:14:27;;;;;;;1.10;1.00;;;17.80;89.10;;;;;;12540375;28;20072;-71
2023/10/31 04:20:29;;;;;;;5.00;2.35;;;17.80;89.10;;;;;;12557749;28;20029;-71
2023/10/31 04:26:30;;;;;;;3.80;1.30;;;17.80;89.10;;;;;;12557691;28;20032;-72
2023/10/31 04:32:32;;;;;;;2.90;1.33;;;17.80;89.10;;;;;;12557193;28;20052;-72
2023/10/31 04:38:38;;;;;;;3.83;1.95;;;17.80;89.20;;;;;;12557435;28;20024;-72
2023/10/31 04:44:39;;;;;;;2.58;1.55;;;17.80;89.10;;;;;;12522325;28;20088;-71
2023/10/31 04:50:41;;;;;;;2.00;1.25;;;17.80;89.20;;;;;;12556329;28;20036;-71
2023/10/31 04:56:42;;;;;;;6.38;1.85;;;17.70;89.40;;;;;;12556023;28;20470;-71
2023/10/31 05:02:44;;;;;;;3.53;1.60;;;17.80;89.40;;;;;;12555742;28;20464;-69
2023/10/31 05:08:46;;;;;;;2.45;1.65;;;17.80;89.40;;;;;;12555536;28;20036;-71
2023/10/31 05:14:48;;;;;;;6.32;1.80;;;17.80;89.30;;;;;;12537674;28;20037;-70
2023/10/31 05:20:49;;;;;;;1.65;1.10;;;17.70;89.20;;;;;;12537765;28;20457;-71
2023/10/31 05:26:51;;;;;;;3.22;2.00;;;17.60;89.50;;;;;;12554894;28;20033;-71
2023/10/31 05:32:52;;;;;;;1.10;0.90;;;17.70;89.60;;;;;;12554687;28;20044;-71
2023/10/31 05:38:54;;;;;;;3.78;1.98;;;17.80;89.50;;;;;;12554904;28;20425;-72
2023/10/31 05:44:56;;;;;;;5.55;1.90;;;17.80;89.50;;;;;;12553949;28;20021;-71
2023/10/31 05:50:59;;;;;;;1.52;0.77;;;18.10;89.40;;;;;;12554868;28;20029;-71
2023/10/31 05:57:01;;;;;;;6.28;1.50;;;18.20;89.20;;;;;;12554079;28;20029;-71
2023/10/31 06:03:03;;;;;;;2.60;1.30;;;18.30;89.20;;;;;;12552618;28;20041;-71
2023/10/31 06:09:05;;;;;;;4.15;1.35;;;18.20;89.10;;;;;;12553688;28;20036;-71
2023/10/31 06:15:08;;;;;;;8.18;2.03;;;18.20;89.00;;;;;;12553632;28;20029;-71
2023/10/31 06:21:09;;;;;;;2.63;1.10;;;18.00;89.10;;;;;;12554290;28;20040;-72
2023/10/31 06:27:11;;;;;;;2.83;1.50;;;18.10;89.20;;;;;;12535426;28;20036;-71
2023/10/31 06:33:13;;;;;;;1.73;1.17;;;18.20;89.10;;;;;;12535428;28;20453;-71
2023/10/31 06:39:14;;;;;;;2.40;0.90;;;18.30;88.90;;;;;;12552311;28;20036;-71
2023/10/31 06:45:16;;;;;;;5.07;1.27;;;18.30;88.80;;;;;;12553555;28;20029;-72
2023/10/31 06:51:18;;;;;;;2.40;1.38;;;18.50;88.90;;;;;;12534999;28;20427;-71
2023/10/31 06:57:19;;;;;;;5.32;1.75;;;18.30;88.90;;;;;;12557954;28;20033;-71
2023/10/31 07:03:21;;;;;;;2.35;1.40;;;18.20;89.10;;;;;;12544132;28;20045;-72
2023/10/31 07:09:29;;;;;;;3.53;1.70;;;18.20;89.20;;;;;;12561145;28;20029;-71
2023/10/31 07:15:30;;;;;;;2.85;1.58;;;18.30;89.10;;;;;;12560697;28;20480;-71
2023/10/31 07:21:32;;;;;;;3.22;1.63;;;18.50;89.10;;;;;;12560684;28;20037;-71
2023/10/31 07:27:34;;;;;;;1.80;1.13;;;18.70;88.70;;;;;;12560396;28;20035;-72
2023/10/31 07:33:35;;;;;;;1.50;0.93;;;18.80;88.40;;;;;;12559978;28;20032;-71
2023/10/31 07:39:37;;;;;;;3.90;1.48;;;18.90;88.40;;;;;;12559809;28;20028;-71
2023/10/31 07:45:41;;;;;;;2.50;1.63;;;18.80;88.30;;;;;;12560176;28;20033;-71
2023/10/31 07:52:19;;;;;;;2.38;1.30;;;18.60;88.60;;;;;;12559317;28;20036;-71
2023/10/31 07:58:36;;;;;;;6.28;2.05;;;18.40;88.70;;;;;;12558863;28;20037;-71
2023/10/31 08:04:38;;;;;;;4.38;2.20;;;18.30;88.60;;;;;;12558678;28;20036;-71
2023/10/31 08:10:39;;;;;;;2.72;1.95;;;18.10;87.50;;;;;;12558041;28;20040;-72
2023/10/31 08:16:41;;;;;;;9.73;2.13;;;18.00;86.10;;;;;;12558028;28;20040;-71
2023/10/31 08:22:43;;;;;;;4.13;2.33;;;18.00;86.20;;;;;;12557670;28;20470;-71
2023/10/31 08:28:44;;;;;;;7.43;2.90;;;18.00;85.70;;;;;;12557451;28;20029;-70
2023/10/31 08:34:46;;;;;;;6.95;2.70;;;18.00;85.90;;;;;;12557073;28;20036;-71
2023/10/31 08:40:49;;;;;;;4.53;2.25;;;18.10;85.40;;;;;;12556752;28;20338;-71
2023/10/31 08:46:50;;;;;;;3.83;0.90;;;18.20;85.20;;;;;;12556568;28;20025;-71
2023/10/31 08:52:52;;;;;;;2.13;1.23;;;18.20;83.10;;;;;;12555403;28;20037;-71
2023/10/31 08:58:54;;;;;;;7.97;1.55;;;18.20;81.80;;;;;;12556378;28;20063;-71
2023/10/31 09:04:56;;;;;;;5.95;1.50;;;18.20;81.30;;;;;;12539082;28;20052;-72
2023/10/31 09:10:58;;;;;;;5.22;1.48;;;18.20;80.30;;;;;;12555871;28;20440;-72
2023/10/31 09:17:00;;;;;;;4.05;0.85;;;18.20;79.20;;;;;;12537097;28;20029;-72
2023/10/31 09:23:02;;;;;;;2.40;0.80;;;18.20;75.30;;;;;;12537637;28;20037;-73
2023/10/31 09:29:04;;;;;;;1.75;0.70;;;18.10;75.20;;;;;;12554825;28;20036;-73
2023/10/31 09:35:08;;;;;;;0.88;0.45;;;18.10;74.80;;;;;;12586177;22;20039;-72
2023/10/31 09:41:14;;;;;;;3.22;0.60;;;18.10;75.00;;;;;;12706269;28;20333;-72
2023/10/31 09:47:16;;;;;;;0.57;0.50;;;18.00;75.70;;;;;;12704676;28;20034;-72
2023/10/31 09:53:18;;;;;;;0.30;0.17;;;18.00;75.40;;;;;;12705313;28;20031;-70
2023/10/31 09:59:21;;;;;;;0.20;0.20;;;18.00;76.10;;;;;;12704476;28;20036;-71
2023/10/31 10:05:24;;;;;;;0.47;0.45;;;18.00;76.10;;;;;;12704604;28;20235;-71
2023/10/31 10:11:27;;;;;;;1.02;0.40;;;17.80;75.20;;;;;;12686824;28;20032;-71
2023/10/31 10:17:29;;;;;;;1.48;0.40;;;17.80;74.50;;;;;;12685841;28;20046;-71
2023/10/31 10:23:32;;;;;;;0.22;0.10;;;17.60;71.90;;;;;;12703936;28;20028;-71
2023/10/31 10:29:34;;;;;;;0.63;0.20;;;17.40;73.70;;;;;;12706175;28;20054;-71
2023/10/31 10:35:35;;;;;;;1.27;0.22;;;17.40;75.00;;;;;;12713594;28;20051;-71
2023/10/31 10:41:42;;;;;;;0.47;0.20;;;17.30;75.20;;;;;;12695855;28;20040;-71
2023/10/31 10:47:47;;;;;;;1.10;0.30;;;17.40;74.90;;;;;;12713147;28;20034;-72
2023/10/31 10:54:11;;;;;;;0.93;0.52;;;17.60;75.80;;;;;;12712838;28;20031;-72
2023/10/31 11:00:13;;;;;;;0.47;0.30;;;17.90;76.00;;;;;;12712242;28;20039;-71
2023/10/31 11:06:15;;;;;;;2.25;0.50;;;18.20;76.60;;;;;;12712187;28;20028;-72
2023/10/31 11:12:40;;;;;;;0.40;0.40;;;18.60;75.10;;;;;;12694049;28;20031;-70
2023/10/31 11:18:43;;;;;;;0.38;0.38;;;18.50;73.10;;;;;;12711684;28;20028;-72
2023/10/31 11:24:52;;;;;;;0.25;0.22;;;18.20;72.70;;;;;;12711370;28;20028;-71
2023/10/31 11:31:14;;;;;;;0.50;0.30;;;18.00;73.60;;;;;;12711802;28;20454;-71
2023/10/31 11:37:31;;;;;;;1.65;0.55;;;17.80;71.90;;;;;;12710843;28;20023;-72
2023/10/31 11:43:52;;;;;;;0.63;0.50;;;17.70;71.30;;;;;;12691369;28;20039;-70
2023/10/31 11:49:54;;;;;;;2.47;0.80;;;17.40;72.50;;;;;;12710221;28;20028;-72
2023/10/31 11:55:56;;;;;;;0.47;0.40;;;17.50;73.70;;;;;;12710566;28;20027;-71
2023/10/31 12:01:58;;;;;;;1.02;0.45;;;17.60;73.00;;;;;;12709544;28;20031;-72
2023/10/31 12:07:59;;;;;;;2.40;0.82;;;17.50;72.80;;;;;;12691001;28;20371;-71
2023/10/31 12:14:04;;;;;;;2.90;1.17;;;17.30;72.80;;;;;;12708893;28;20043;-72
2023/10/31 12:20:08;;;;;;;1.38;0.70;;;17.30;73.20;;;;;;12674013;28;20035;-72
2023/10/31 12:26:10;;;;;;;1.13;0.73;;;17.30;73.10;;;;;;12690099;28;20046;-71
2023/10/31 12:32:16;;;;;;;3.00;0.60;;;17.30;73.10;;;;;;12707965;28;20448;-71
2023/10/31 12:38:19;;;;;;;5.68;0.93;;;17.40;72.70;;;;;;12707581;28;20057;-72
2023/10/31 12:44:25;;;;;;;4.63;0.80;;;17.30;72.80;;;;;;12707208;28;20065;-73
2023/10/31 12:50:27;;;;;;;1.80;0.45;;;17.30;72.30;;;;;;12707110;28;20436;-72
2023/10/31 12:56:41;;;;;;;6.47;1.02;;;17.20;73.10;;;;;;12705840;28;20045;-71
2023/10/31 13:02:43;;;;;;;0.98;0.50;;;17.20;73.60;;;;;;12706430;28;20444;-71
2023/10/31 13:08:48;;;;;;;1.20;0.60;;;17.20;73.70;;;;;;12706352;28;20031;-73
2023/10/31 13:14:50;;;;;;;0.50;0.50;;;17.20;73.20;;;;;;12687965;28;20034;-71
2023/10/31 13:20:51;;;;;;;1.60;0.55;;;17.20;73.10;;;;;;12705734;28;20371;-72
2023/10/31 13:26:53;;;;;;;1.65;0.65;;;17.30;73.50;;;;;;12705565;28;20032;-70
2023/10/31 13:32:57;;;;;;;2.97;0.95;;;17.30;72.50;;;;;;12705348;28;20032;-69
2023/10/31 13:38:59;;;;;;;0.70;0.50;;;17.40;72.60;;;;;;12704990;28;20032;-70
2023/10/31 13:45:00;;;;;;;1.38;0.60;;;17.50;71.20;;;;;;12704987;28;20031;-70
2023/10/31 13:51:02;;;;;;;0.63;0.38;;;17.70;71.00;;;;;;12687605;28;20336;-70
2023/10/31 13:57:04;;;;;;;1.73;0.38;;;17.90;71.00;;;;;;12686494;28;20474;-71
2023/10/31 14:03:06;;;;;;;0.32;0.22;;;18.00;70.60;;;;;;12686448;28;20031;-70
2023/10/31 14:09:09;;;;;;;1.67;0.57;;;18.30;71.40;;;;;;12696837;28;20036;-71
2023/10/31 14:15:11;;;;;;;1.38;0.38;;;18.60;70.30;;;;;;12714981;28;20038;-72
2023/10/31 14:21:13;;;;;;;0.40;0.20;;;18.80;69.00;;;;;;12714281;28;20039;-72
2023/10/31 14:27:15;;;;;;;0.93;0.25;;;18.90;66.60;;;;;;12713762;28;20028;-72
2023/10/31 14:33:16;;;;;;;0.50;0.50;;;18.80;64.60;;;;;;12713760;28;20058;-71
2023/10/31 14:39:38;;;;;;;0.35;0.22;;;18.80;64.70;;;;;;12713401;28;20368;-72
2023/10/31 14:45:41;;;;;;;1.05;0.60;;;18.70;65.00;;;;;;12713128;28;20089;-72
2023/10/31 14:51:42;;;;;;;1.30;0.43;;;18.60;65.80;;;;;;12713415;28;20032;-72
2023/10/31 14:57:44;;;;;;;0.40;0.35;;;18.50;66.40;;;;;;12712621;28;20043;-71
2023/10/31 15:03:47;;;;;;;0.30;0.30;;;18.50;66.80;;;;;;12712748;28;20028;-71
2023/10/31 15:09:48;;;;;;;0.15;0.15;;;18.30;67.80;;;;;;12693849;28;20439;-71
2023/10/31 15:15:50;;;;;;;0.90;0.40;;;18.30;68.20;;;;;;12692434;28;20039;-71
2023/10/31 15:21:52;;;;;;;2.42;1.10;;;18.30;68.60;;;;;;12711211;28;20043;-71
2023/10/31 15:27:55;;;;;;;1.13;0.68;;;18.30;69.60;;;;;;12711139;28;20023;-71
2023/10/31 15:33:57;;;;;;;2.65;0.50;;;18.30;70.00;;;;;;12710908;28;20356;-71
2023/10/31 15:39:58;;;;;;;0.20;0.20;;;18.20;70.60;;;;;;12710532;28;20042;-71
2023/10/31 15:46:00;;;;;;;1.13;0.77;;;18.00;71.00;;;;;;12692914;28;20036;-71
2023/10/31 15:52:02;;;;;;;1.20;0.88;;;17.90;71.20;;;;;;12709974;28;20028;-71
2023/10/31 15:58:06;;;;;;;1.48;0.68;;;17.80;71.90;;;;;;12711304;28;20540;-71
2023/10/31 16:04:08;;;;;;;0.73;0.47;;;17.90;72.80;;;;;;12710101;28;20435;-71
2023/10/31 16:10:10;;;;;;;0.60;0.40;;;17.90;74.00;;;;;;12709191;28;20036;-71
2023/10/31 16:16:12;;;;;;;1.75;0.93;;;18.20;75.80;;;;;;12690672;28;20035;-72
2023/10/31 16:22:14;;;;;;;3.58;0.80;;;18.40;76.30;;;;;;12708398;28;20031;-72
2023/10/31 16:28:18;;;;;;;2.25;1.05;;;18.30;76.60;;;;;;12707956;28;20031;-72
2023/10/31 16:34:20;;;;;;;2.17;1.20;;;18.30;77.70;;;;;;12707939;28;20027;-72
2023/10/31 16:40:23;;;;;;;2.63;1.52;;;18.30;78.30;;;;;;12708093;28;20455;-72
2023/10/31 16:46:27;;;;;;;2.03;1.13;;;18.30;78.60;;;;;;12707305;28;20038;-72
2023/10/31 16:52:28;;;;;;;3.28;1.65;;;18.30;78.60;;;;;;12707110;28;20031;-72
2023/10/31 16:58:30;;;;;;;11.57;2.00;;;18.20;78.60;;;;;;12707556;28;20024;-72
2023/10/31 17:04:34;;;;;;;3.95;2.30;;;18.10;79.30;;;;;;12706392;28;20035;-71
2023/10/31 17:10:36;;;;;;;3.05;2.25;;;18.00;79.60;;;;;;12706222;28;20035;-71
2023/10/31 17:16:38;;;;;;;6.03;3.15;;;17.70;80.10;;;;;;12706052;28;20032;-71
2023/10/31 17:22:39;;;;;;;7.65;4.68;;;17.60;80.40;;;;;;12687577;28;20324;-71
2023/10/31 17:28:41;;;;;;;6.10;4.15;;;17.60;80.40;;;;;;12688087;28;20035;-73
2023/10/31 17:34:43;;;;;;;7.10;4.78;;;17.70;80.70;;;;;;12680303;22;20037;-71
2023/10/31 17:40:44;;;;;;;9.02;6.18;;;17.70;80.80;;;;;;12553875;28;20036;-72
2023/10/31 17:46:46;;;;;;;11.85;8.85;;;17.60;80.80;;;;;;12537891;28;20032;-72
2023/10/31 17:52:48;;;;;;;11.82;8.43;;;17.50;81.30;;;;;;12554191;28;20033;-72
2023/10/31 17:58:59;;;;;;;15.93;9.40;;;17.30;81.40;;;;;;12536302;28;20036;-73
2023/10/31 18:05:02;;;;;;;15.60;8.82;;;17.30;81.30;;;;;;12536025;28;20041;-72
2023/10/31 18:11:05;;;;;;;10.90;7.70;;;17.20;81.70;;;;;;12553766;28;20025;-72
2023/10/31 18:17:07;;;;;;;8.93;6.90;;;17.30;81.90;;;;;;12535806;28;20365;-71
2023/10/31 18:23:46;;;;;;;10.87;6.80;;;17.20;81.70;;;;;;12553494;28;20354;-71
2023/10/31 18:29:52;;;;;;;10.05;6.78;;;17.20;82.10;;;;;;12553341;28;20433;-71
2023/10/31 18:35:53;;;;;;;11.60;6.47;;;17.00;82.00;;;;;;12553362;28;20037;-71
2023/10/31 18:41:54;;;;;;;9.57;6.50;;;17.00;82.40;;;;;;12568517;28;20057;-71
2023/10/31 18:47:56;;;;;;;8.45;5.97;;;16.70;82.50;;;;;;12554001;28;20025;-71
2023/10/31 18:53:58;;;;;;;8.50;6.10;;;16.70;82.60;;;;;;12541433;28;20465;-71
2023/10/31 19:00:03;;;;;;;8.90;6.55;;;16.80;83.00;;;;;;12515327;28;20032;-71
2023/10/31 19:06:05;;;;;;;11.45;6.78;;;16.80;82.60;;;;;;12533617;28;20171;-71
2023/10/31 19:12:07;;;;;;;7.45;5.85;;;16.80;82.40;;;;;;12510354;28;20036;-71
2023/10/31 19:18:09;;;;;;;7.72;6.07;;;16.50;82.70;;;;;;12508531;28;20037;-71
2023/10/31 19:24:10;;;;;;;7.55;5.75;;;16.40;83.00;;;;;;12511885;28;20428;-71
2023/10/31 19:30:14;;;;;;;8.80;6.00;;;16.20;83.40;;;;;;12510952;28;20442;-71
2023/10/31 19:36:17;;;;;;;6.50;4.82;;;16.40;83.00;;;;;;12510641;28;20366;-72
2023/10/31 19:42:18;;;;;;;8.52;5.47;;;16.20;83.10;;;;;;12510391;28;20485;-73
2023/10/31 19:48:20;;;;;;;12.30;8.40;;;16.00;83.30;;;;;;12510761;28;20029;-71
2023/10/31 19:54:22;;;;;;;9.68;6.47;;;16.10;83.60;;;;;;12509727;28;20037;-72
2023/10/31 20:00:27;;;;;;;8.70;7.03;;;16.20;83.50;;;;;;12525821;28;20041;-71
2023/10/31 20:06:35;;;;;;;11.30;7.80;;;16.20;83.10;;;;;;12508746;28;20029;-71
2023/10/31 20:12:36;;;;;;;10.65;8.05;;;16.20;83.10;;;;;;12509045;28;20026;-71
2023/10/31 20:18:39;;;;;;;8.80;6.63;;;16.30;82.90;;;;;;12508685;28;20430;-71
2023/10/31 20:25:04;;;;;;;9.75;6.68;;;16.00;83.00;;;;;;12508484;28;20037;-72
2023/10/31 20:31:06;;;;;;;13.35;9.02;;;15.90;83.00;;;;;;12508127;28;20041;-71
2023/10/31 20:37:08;;;;;;;11.27;9.02;;;15.90;82.90;;;;;;12524126;28;20442;-72
2023/10/31 20:43:09;;;;;;;22.35;16.88;;;15.90;82.90;;;;;;12507586;28;20030;-71
2023/10/31 20:49:11;;;;;;;12.68;10.02;;;15.90;82.70;;;;;;12523556;28;20044;-73
2023/10/31 20:55:15;;;;;;;13.35;10.32;;;15.90;83.20;;;;;;12507059;28;20465;-73
2023/10/31 21:01:16;;;;;;;12.50;9.18;;;15.90;83.00;;;;;;12506587;28;20472;-73
2023/10/31 21:07:18;;;;;;;11.00;7.50;;;15.70;83.10;;;;;;12472592;28;20037;-72
2023/10/31 21:13:20;;;;;;;12.25;8.80;;;15.80;83.60;;;;;;12505922;28;20033;-73
2023/10/31 21:19:21;;;;;;;11.95;8.25;;;15.90;83.80;;;;;;12505898;28;20033;-74
2023/10/31 21:25:24;;;;;;;9.43;6.72;;;15.70;83.60;;;;;;12505664;28;20357;-73
2023/10/31 21:31:26;;;;;;;9.23;6.50;;;15.70;83.80;;;;;;12505475;28;20045;-73
2023/10/31 21:37:28;;;;;;;10.65;7.40;;;15.80;83.90;;;;;;12487996;28;20037;-73
2023/10/31 21:43:29;;;;;;;7.25;4.47;;;15.70;84.30;;;;;;12504971;28;20033;-71
2023/10/31 21:49:31;;;;;;;6.25;4.15;;;15.80;84.30;;;;;;12471443;28;20037;-73
2023/10/31 21:56:01;;;;;;;5.32;3.38;;;15.80;84.10;;;;;;12504940;28;20452;-72
2023/10/31 22:02:03;;;;;;;5.85;3.53;;;15.80;84.70;;;;;;12487493;28;20037;-73
2023/10/31 22:08:09;;;;;;;6.85;4.07;;;15.80;85.20;;;;;;12486981;28;20319;-73
2023/10/31 22:14:10;;;;;;;6.03;3.83;;;15.80;85.30;;;;;;12504337;28;20354;-74
2023/10/31 22:20:12;;;;;;;6.95;4.47;;;15.80;85.70;;;;;;12504034;28;20064;-73
2023/10/31 22:26:14;;;;;;;6.03;3.80;;;15.80;85.90;;;;;;12507291;28;20022;-71
2023/10/31 22:32:18;;;;;;;4.60;3.30;;;15.80;85.70;;;;;;12513717;28;20038;-73
2023/10/31 22:38:22;;;;;;;6.70;3.33;;;15.80;85.60;;;;;;12513308;28;20048;-73
2023/10/31 22:44:24;;;;;;;4.55;3.20;;;15.70;85.60;;;;;;12513739;28;20056;-73
2023/10/31 22:50:26;;;;;;;4.03;2.83;;;15.50;85.50;;;;;;12512927;28;20113;-73
2023/10/31 22:56:30;;;;;;;5.22;2.53;;;15.50;85.40;;;;;;12512579;28;20037;-73
2023/10/31 23:02:32;;;;;;;4.43;2.47;;;15.50;85.20;;;;;;12512210;28;20037;-73
2023/10/31 23:08:34;;;;;;;4.00;2.50;;;15.60;85.30;;;;;;12512052;28;20021;-73
2023/10/31 23:14:36;;;;;;;3.75;2.67;;;15.60;85.10;;;;;;12527366;28;20049;-73
2023/10/31 23:20:38;;;;;;;3.15;2.15;;;15.50;84.90;;;;;;12493801;28;20311;-73
2023/10/31 23:26:41;;;;;;;3.08;2.10;;;15.40;85.00;;;;;;12493729;28;20041;-73
2023/10/31 23:32:43;;;;;;;4.18;2.35;;;15.30;84.80;;;;;;12526607;28;20049;-74
2023/10/31 23:38:44;;;;;;;3.78;2.05;;;15.30;84.70;;;;;;12509685;28;20041;-73
2023/10/31 23:44:46;;;;;;;4.30;3.05;;;15.20;84.60;;;;;;12493392;28;20041;-74
2023/10/31 23:50:47;;;;;;;3.20;2.10;;;14.90;85.00;;;;;;12493304;28;20045;-73
2023/10/31 23:56:49;;;;;;;3.22;2.17;;;15.10;85.20;;;;;;12509851;28;20442;-73
